Terminal Aerodrome Forecast
Issued by NWS

Home | Current Version | Previous Version | Text Only | Print | Product List | Glossary On
Versions: 1 2 3 4 5 6 7 8 9 10 11 12 13 14 15 16 17
000
FTUS43 KDLH 231100 RRA
TAFHIB
TAF
KHIB 231147Z 2312/2412 03005KT P6SM SCT007 OVC012
     FM231600 02008KT 3SM -SN BR SCT004 OVC014
     FM232300 36009KT 5SM -SN BR OVC010
     FM240200 35007KT 6SM -SN OVC012
     FM240800 34007KT P6SM OVC008=

USA.gov is the U.S. government's official web portal to all federal, state and local government web resources and services.